sensor_id;sensor_type;location;lat;lon;timestamp;temperature;humidity
65058;HTU21D;51644;51.068;5.860;2022-08-01T00:00:20;22.37;76.40
65058;HTU21D;51644;51.068;5.860;2022-08-01T00:01:18;22.37;76.21
65058;HTU21D;51644;51.068;5.860;2022-08-01T00:02:17;22.31;76.47
65058;HTU21D;51644;51.068;5.860;2022-08-01T00:03:15;22.32;76.44
65058;HTU21D;51644;51.068;5.860;2022-08-01T00:04:14;22.32;76.66
65058;HTU21D;51644;51.068;5.860;2022-08-01T00:05:12;22.35;76.87
65058;HTU21D;51644;51.068;5.860;2022-08-01T00:06:11;22.35;76.82
65058;HTU21D;51644;51.068;5.860;2022-08-01T00:07:10;22.33;76.84
65058;HTU21D;51644;51.068;5.860;2022-08-01T00:08:08;22.31;76.60
65058;HTU21D;51644;51.068;5.860;2022-08-01T00:09:07;22.25;76.61
65058;HTU21D;51644;51.068;5.860;2022-08-01T00:10:15;22.26;76.58
65058;HTU21D;51644;51.068;5.860;2022-08-01T00:11:14;22.27;76.76
65058;HTU21D;51644;51.068;5.860;2022-08-01T00:12:12;22.28;76.86
65058;HTU21D;51644;51.068;5.860;2022-08-01T00:13:11;22.31;76.72
65058;HTU21D;51644;51.068;5.860;2022-08-01T00:14:09;22.32;76.67
65058;HTU21D;51644;51.068;5.860;2022-08-01T00:15:15;22.35;76.65
65058;HTU21D;51644;51.068;5.860;2022-08-01T00:16:13;22.36;76.47
65058;HTU21D;51644;51.068;5.860;2022-08-01T00:17:12;22.37;76.49
65058;HTU21D;51644;51.068;5.860;2022-08-01T00:18:10;22.39;76.41
65058;HTU21D;51644;51.068;5.860;2022-08-01T00:19:09;22.40;76.36
65058;HTU21D;51644;51.068;5.860;2022-08-01T00:20:10;22.39;76.28
65058;HTU21D;51644;51.068;5.860;2022-08-01T00:21:09;22.42;76.33
65058;HTU21D;51644;51.068;5.860;2022-08-01T00:22:07;22.43;76.31
65058;HTU21D;51644;51.068;5.860;2022-08-01T00:23:06;22.46;76.30
65058;HTU21D;51644;51.068;5.860;2022-08-01T00:24:05;22.46;76.28
65058;HTU21D;51644;51.068;5.860;2022-08-01T00:25:05;22.44;76.18
65058;HTU21D;51644;51.068;5.860;2022-08-01T00:26:03;22.43;76.22
65058;HTU21D;51644;51.068;5.860;2022-08-01T00:27:02;22.43;76.37
65058;HTU21D;51644;51.068;5.860;2022-08-01T00:28:02;22.46;76.41
65058;HTU21D;51644;51.068;5.860;2022-08-01T00:29:00;22.48;76.42
65058;HTU21D;51644;51.068;5.860;2022-08-01T00:29:59;22.53;76.43
65058;HTU21D;51644;51.068;5.860;2022-08-01T00:30:57;22.56;76.19
65058;HTU21D;51644;51.068;5.860;2022-08-01T00:31:56;22.60;76.06
65058;HTU21D;51644;51.068;5.860;2022-08-01T00:32:55;22.63;76.02
65058;HTU21D;51644;51.068;5.860;2022-08-01T00:33:53;22.68;75.74
65058;HTU21D;51644;51.068;5.860;2022-08-01T00:34:52;22.69;75.57
65058;HTU21D;51644;51.068;5.860;2022-08-01T00:35:50;22.71;75.51
65058;HTU21D;51644;51.068;5.860;2022-08-01T00:36:49;22.72;75.41
65058;HTU21D;51644;51.068;5.860;2022-08-01T00:37:47;22.73;75.28
65058;HTU21D;51644;51.068;5.860;2022-08-01T00:38:46;22.75;75.25
65058;HTU21D;51644;51.068;5.860;2022-08-01T00:39:44;22.70;75.20
65058;HTU21D;51644;51.068;5.860;2022-08-01T00:40:43;22.68;75.09
65058;HTU21D;51644;51.068;5.860;2022-08-01T00:41:41;22.63;75.15
65058;HTU21D;51644;51.068;5.860;2022-08-01T00:42:40;22.64;75.18
65058;HTU21D;51644;51.068;5.860;2022-08-01T00:43:39;22.62;75.16
65058;HTU21D;51644;51.068;5.860;2022-08-01T00:44:38;22.61;75.20
65058;HTU21D;51644;51.068;5.860;2022-08-01T00:45:37;22.55;75.31
65058;HTU21D;51644;51.068;5.860;2022-08-01T00:46:36;22.54;75.30
65058;HTU21D;51644;51.068;5.860;2022-08-01T00:47:34;22.54;75.43
65058;HTU21D;51644;51.068;5.860;2022-08-01T00:48:33;22.54;75.54
65058;HTU21D;51644;51.068;5.860;2022-08-01T00:49:32;22.56;75.39
65058;HTU21D;51644;51.068;5.860;2022-08-01T00:50:32;22.56;75.28
65058;HTU21D;51644;51.068;5.860;2022-08-01T00:51:30;22.60;75.40
65058;HTU21D;51644;51.068;5.860;2022-08-01T00:52:29;22.63;75.37
65058;HTU21D;51644;51.068;5.860;2022-08-01T00:53:28;22.65;75.20
65058;HTU21D;51644;51.068;5.860;2022-08-01T00:54:27;22.68;75.14
65058;HTU21D;51644;51.068;5.860;2022-08-01T00:55:27;22.70;74.96
65058;HTU21D;51644;51.068;5.860;2022-08-01T00:56:27;22.71;74.85
65058;HTU21D;51644;51.068;5.860;2022-08-01T00:57:26;22.70;74.77
65058;HTU21D;51644;51.068;5.860;2022-08-01T00:58:25;22.69;74.73
65058;HTU21D;51644;51.068;5.860;2022-08-01T00:59:24;22.68;74.72
65058;HTU21D;51644;51.068;5.860;2022-08-01T01:00:24;22.68;74.70
65058;HTU21D;51644;51.068;5.860;2022-08-01T01:01:22;22.70;74.86
65058;HTU21D;51644;51.068;5.860;2022-08-01T01:02:21;22.73;74.82
65058;HTU21D;51644;51.068;5.860;2022-08-01T01:03:21;22.75;74.63
65058;HTU21D;51644;51.068;5.860;2022-08-01T01:04:20;22.77;74.50
65058;HTU21D;51644;51.068;5.860;2022-08-01T01:05:19;22.78;74.44
65058;HTU21D;51644;51.068;5.860;2022-08-01T01:06:26;22.77;74.42
65058;HTU21D;51644;51.068;5.860;2022-08-01T01:10:32;22.71;74.30
65058;HTU21D;51644;51.068;5.860;2022-08-01T01:15:43;22.71;74.36
65058;HTU21D;51644;51.068;5.860;2022-08-01T01:16:46;22.70;74.40
65058;HTU21D;51644;51.068;5.860;2022-08-01T01:17:52;22.73;74.44
65058;HTU21D;51644;51.068;5.860;2022-08-01T01:18:55;22.77;74.39
65058;HTU21D;51644;51.068;5.860;2022-08-01T01:19:57;22.77;74.32
65058;HTU21D;51644;51.068;5.860;2022-08-01T01:23:49;22.81;74.13
65058;HTU21D;51644;51.068;5.860;2022-08-01T01:29:28;22.87;74.24
65058;HTU21D;51644;51.068;5.860;2022-08-01T01:30:30;22.93;74.12
65058;HTU21D;51644;51.068;5.860;2022-08-01T01:31:40;22.93;74.02
65058;HTU21D;51644;51.068;5.860;2022-08-01T01:32:43;22.94;73.95
65058;HTU21D;51644;51.068;5.860;2022-08-01T01:33:43;22.93;73.80
65058;HTU21D;51644;51.068;5.860;2022-08-01T01:34:44;22.92;73.76
65058;HTU21D;51644;51.068;5.860;2022-08-01T01:35:51;22.91;73.75
65058;HTU21D;51644;51.068;5.860;2022-08-01T01:36:54;22.91;73.82
65058;HTU21D;51644;51.068;5.860;2022-08-01T01:38:01;22.91;73.84
65058;HTU21D;51644;51.068;5.860;2022-08-01T01:39:02;22.91;73.84
65058;HTU21D;51644;51.068;5.860;2022-08-01T01:40:02;22.91;73.89
65058;HTU21D;51644;51.068;5.860;2022-08-01T01:41:03;22.86;73.90
65058;HTU21D;51644;51.068;5.860;2022-08-01T01:42:06;22.83;73.93
65058;HTU21D;51644;51.068;5.860;2022-08-01T01:43:09;22.82;73.96
65058;HTU21D;51644;51.068;5.860;2022-08-01T01:44:10;22.80;74.02
65058;HTU21D;51644;51.068;5.860;2022-08-01T01:45:11;22.78;74.19
65058;HTU21D;51644;51.068;5.860;2022-08-01T01:46:13;22.76;74.22
65058;HTU21D;51644;51.068;5.860;2022-08-01T01:47:16;22.76;74.21
65058;HTU21D;51644;51.068;5.860;2022-08-01T01:48:18;22.78;74.17
65058;HTU21D;51644;51.068;5.860;2022-08-01T01:49:22;22.77;74.12
65058;HTU21D;51644;51.068;5.860;2022-08-01T01:50:23;22.77;74.14
65058;HTU21D;51644;51.068;5.860;2022-08-01T01:51:25;22.76;74.21
65058;HTU21D;51644;51.068;5.860;2022-08-01T01:52:26;22.76;74.35
65058;HTU21D;51644;51.068;5.860;2022-08-01T01:53:28;22.76;74.38
65058;HTU21D;51644;51.068;5.860;2022-08-01T01:54:35;22.76;74.31
65058;HTU21D;51644;51.068;5.860;2022-08-01T01:55:35;22.77;74.32
65058;HTU21D;51644;51.068;5.860;2022-08-01T01:56:36;22.77;74.36
65058;HTU21D;51644;51.068;5.860;2022-08-01T01:57:48;22.73;74.36
65058;HTU21D;51644;51.068;5.860;2022-08-01T01:58:52;22.71;74.34
65058;HTU21D;51644;51.068;5.860;2022-08-01T01:59:54;22.69;74.47
65058;HTU21D;51644;51.068;5.860;2022-08-01T02:00:55;22.68;74.54
65058;HTU21D;51644;51.068;5.860;2022-08-01T02:01:58;22.69;74.53
65058;HTU21D;51644;51.068;5.860;2022-08-01T02:03:01;22.69;74.67
65058;HTU21D;51644;51.068;5.860;2022-08-01T02:04:01;22.71;74.50
65058;HTU21D;51644;51.068;5.860;2022-08-01T02:05:01;22.70;74.52
65058;HTU21D;51644;51.068;5.860;2022-08-01T02:06:00;22.71;74.44
65058;HTU21D;51644;51.068;5.860;2022-08-01T02:07:02;22.72;74.42
65058;HTU21D;51644;51.068;5.860;2022-08-01T02:08:02;22.70;74.40
65058;HTU21D;51644;51.068;5.860;2022-08-01T02:09:02;22.70;74.52
65058;HTU21D;51644;51.068;5.860;2022-08-01T02:10:04;22.70;74.55
65058;HTU21D;51644;51.068;5.860;2022-08-01T02:11:04;22.70;74.51
65058;HTU21D;51644;51.068;5.860;2022-08-01T02:12:21;22.70;74.46
65058;HTU21D;51644;51.068;5.860;2022-08-01T02:13:23;22.71;74.38
65058;HTU21D;51644;51.068;5.860;2022-08-01T02:14:23;22.71;74.41
65058;HTU21D;51644;51.068;5.860;2022-08-01T02:15:24;22.70;74.40
65058;HTU21D;51644;51.068;5.860;2022-08-01T02:16:26;22.71;74.35
65058;HTU21D;51644;51.068;5.860;2022-08-01T02:17:26;22.71;74.36
65058;HTU21D;51644;51.068;5.860;2022-08-01T02:18:26;22.71;74.31
65058;HTU21D;51644;51.068;5.860;2022-08-01T02:19:25;22.72;74.33
65058;HTU21D;51644;51.068;5.860;2022-08-01T02:20:29;22.71;74.31
65058;HTU21D;51644;51.068;5.860;2022-08-01T02:21:35;22.72;74.38
65058;HTU21D;51644;51.068;5.860;2022-08-01T02:23:12;22.72;74.28
65058;HTU21D;51644;51.068;5.860;2022-08-01T02:25:35;22.72;74.41
65058;HTU21D;51644;51.068;5.860;2022-08-01T02:26:38;22.75;74.47
65058;HTU21D;51644;51.068;5.860;2022-08-01T02:27:45;22.77;74.32
65058;HTU21D;51644;51.068;5.860;2022-08-01T02:28:59;22.79;74.26
65058;HTU21D;51644;51.068;5.860;2022-08-01T02:30:01;22.80;74.21
65058;HTU21D;51644;51.068;5.860;2022-08-01T02:31:06;22.82;74.16
65058;HTU21D;51644;51.068;5.860;2022-08-01T02:32:11;22.80;74.09
65058;HTU21D;51644;51.068;5.860;2022-08-01T02:33:16;22.80;73.99
65058;HTU21D;51644;51.068;5.860;2022-08-01T02:34:18;22.79;74.01
65058;HTU21D;51644;51.068;5.860;2022-08-01T02:35:24;22.78;74.04
65058;HTU21D;51644;51.068;5.860;2022-08-01T02:36:26;22.78;74.03
65058;HTU21D;51644;51.068;5.860;2022-08-01T02:37:26;22.79;74.02
65058;HTU21D;51644;51.068;5.860;2022-08-01T02:38:30;22.78;74.02
65058;HTU21D;51644;51.068;5.860;2022-08-01T02:39:31;22.77;73.99
65058;HTU21D;51644;51.068;5.860;2022-08-01T02:40:33;22.77;73.99
65058;HTU21D;51644;51.068;5.860;2022-08-01T02:41:45;22.76;74.07
65058;HTU21D;51644;51.068;5.860;2022-08-01T02:42:50;22.72;74.10
65058;HTU21D;51644;51.068;5.860;2022-08-01T02:43:53;22.75;74.16
65058;HTU21D;51644;51.068;5.860;2022-08-01T02:44:57;22.70;74.23
65058;HTU21D;51644;51.068;5.860;2022-08-01T02:46:01;22.70;74.28
65058;HTU21D;51644;51.068;5.860;2022-08-01T02:47:02;22.69;74.29
65058;HTU21D;51644;51.068;5.860;2022-08-01T02:48:10;22.69;74.41
65058;HTU21D;51644;51.068;5.860;2022-08-01T02:49:12;22.69;74.41
65058;HTU21D;51644;51.068;5.860;2022-08-01T02:50:13;22.70;74.44
65058;HTU21D;51644;51.068;5.860;2022-08-01T02:51:14;22.69;74.40
65058;HTU21D;51644;51.068;5.860;2022-08-01T02:52:16;22.70;74.41
65058;HTU21D;51644;51.068;5.860;2022-08-01T02:53:19;22.72;74.37
65058;HTU21D;51644;51.068;5.860;2022-08-01T02:54:22;22.72;74.30
65058;HTU21D;51644;51.068;5.860;2022-08-01T02:55:26;22.73;74.22
65058;HTU21D;51644;51.068;5.860;2022-08-01T02:56:33;22.72;74.26
65058;HTU21D;51644;51.068;5.860;2022-08-01T02:57:37;22.73;74.34
65058;HTU21D;51644;51.068;5.860;2022-08-01T02:58:40;22.76;74.19
65058;HTU21D;51644;51.068;5.860;2022-08-01T02:59:57;22.76;74.09
65058;HTU21D;51644;51.068;5.860;2022-08-01T03:00:58;22.77;74.02
65058;HTU21D;51644;51.068;5.860;2022-08-01T03:02:00;22.77;74.00
65058;HTU21D;51644;51.068;5.860;2022-08-01T03:03:03;22.75;73.99
65058;HTU21D;51644;51.068;5.860;2022-08-01T03:04:04;22.72;74.04
65058;HTU21D;51644;51.068;5.860;2022-08-01T03:05:04;22.71;74.05
65058;HTU21D;51644;51.068;5.860;2022-08-01T03:06:05;22.70;74.07
65058;HTU21D;51644;51.068;5.860;2022-08-01T03:07:09;22.71;74.10
65058;HTU21D;51644;51.068;5.860;2022-08-01T03:08:10;22.71;74.08
65058;HTU21D;51644;51.068;5.860;2022-08-01T03:09:10;22.69;74.02
65058;HTU21D;51644;51.068;5.860;2022-08-01T03:10:10;22.67;73.93
65058;HTU21D;51644;51.068;5.860;2022-08-01T03:11:12;22.66;74.02
65058;HTU21D;51644;51.068;5.860;2022-08-01T03:12:16;22.64;74.04
65058;HTU21D;51644;51.068;5.860;2022-08-01T03:13:18;22.62;74.06
65058;HTU21D;51644;51.068;5.860;2022-08-01T03:14:21;22.62;74.15
65058;HTU21D;51644;51.068;5.860;2022-08-01T03:15:24;22.62;74.22
65058;HTU21D;51644;51.068;5.860;2022-08-01T03:16:27;22.63;74.25
65058;HTU21D;51644;51.068;5.860;2022-08-01T03:17:28;22.63;74.22
65058;HTU21D;51644;51.068;5.860;2022-08-01T03:18:29;22.65;74.21
65058;HTU21D;51644;51.068;5.860;2022-08-01T03:19:31;22.65;74.13
65058;HTU21D;51644;51.068;5.860;2022-08-01T03:20:32;22.64;74.02
65058;HTU21D;51644;51.068;5.860;2022-08-01T03:21:32;22.62;74.06
65058;HTU21D;51644;51.068;5.860;2022-08-01T03:22:34;22.63;73.99
65058;HTU21D;51644;51.068;5.860;2022-08-01T03:23:36;22.62;73.97
65058;HTU21D;51644;51.068;5.860;2022-08-01T03:24:38;22.58;74.01
65058;HTU21D;51644;51.068;5.860;2022-08-01T03:25:40;22.56;74.12
65058;HTU21D;51644;51.068;5.860;2022-08-01T03:26:41;22.55;74.11
65058;HTU21D;51644;51.068;5.860;2022-08-01T03:27:42;22.55;74.12
65058;HTU21D;51644;51.068;5.860;2022-08-01T03:28:44;22.56;74.08
65058;HTU21D;51644;51.068;5.860;2022-08-01T03:29:45;22.58;74.17
65058;HTU21D;51644;51.068;5.860;2022-08-01T03:30:46;22.57;74.15
65058;HTU21D;51644;51.068;5.860;2022-08-01T03:31:51;22.58;74.15
65058;HTU21D;51644;51.068;5.860;2022-08-01T03:32:51;22.57;74.15
65058;HTU21D;51644;51.068;5.860;2022-08-01T03:33:49;22.57;74.12
65058;HTU21D;51644;51.068;5.860;2022-08-01T03:34:48;22.56;74.11
65058;HTU21D;51644;51.068;5.860;2022-08-01T03:35:49;22.56;74.06
65058;HTU21D;51644;51.068;5.860;2022-08-01T03:36:59;22.55;74.06
65058;HTU21D;51644;51.068;5.860;2022-08-01T03:38:02;22.53;74.06
65058;HTU21D;51644;51.068;5.860;2022-08-01T03:39:04;22.53;74.05
65058;HTU21D;51644;51.068;5.860;2022-08-01T03:40:24;22.51;74.09
65058;HTU21D;51644;51.068;5.860;2022-08-01T03:41:28;22.47;74.22
65058;HTU21D;51644;51.068;5.860;2022-08-01T03:42:42;22.47;74.28
65058;HTU21D;51644;51.068;5.860;2022-08-01T03:43:50;22.43;74.32
65058;HTU21D;51644;51.068;5.860;2022-08-01T03:44:57;22.44;74.35
65058;HTU21D;51644;51.068;5.860;2022-08-01T03:46:04;22.47;74.43
65058;HTU21D;51644;51.068;5.860;2022-08-01T03:47:08;22.50;74.38
65058;HTU21D;51644;51.068;5.860;2022-08-01T03:48:14;22.51;74.30
65058;HTU21D;51644;51.068;5.860;2022-08-01T03:49:38;22.54;74.15
65058;HTU21D;51644;51.068;5.860;2022-08-01T03:50:42;22.55;73.97
65058;HTU21D;51644;51.068;5.860;2022-08-01T03:51:41;22.55;73.93
65058;HTU21D;51644;51.068;5.860;2022-08-01T03:52:43;22.52;73.90
65058;HTU21D;51644;51.068;5.860;2022-08-01T03:53:45;22.51;73.93
65058;HTU21D;51644;51.068;5.860;2022-08-01T03:54:49;22.49;74.06
65058;HTU21D;51644;51.068;5.860;2022-08-01T03:55:51;22.49;74.14
65058;HTU21D;51644;51.068;5.860;2022-08-01T03:56:52;22.47;74.22
65058;HTU21D;51644;51.068;5.860;2022-08-01T03:57:52;22.44;74.37
65058;HTU21D;51644;51.068;5.860;2022-08-01T03:58:51;22.43;74.52
65058;HTU21D;51644;51.068;5.860;2022-08-01T03:59:50;22.40;74.73
65058;HTU21D;51644;51.068;5.860;2022-08-01T04:00:49;22.39;74.75
65058;HTU21D;51644;51.068;5.860;2022-08-01T04:01:49;22.37;74.86
65058;HTU21D;51644;51.068;5.860;2022-08-01T04:02:49;22.35;74.93
65058;HTU21D;51644;51.068;5.860;2022-08-01T04:03:48;22.37;74.99
65058;HTU21D;51644;51.068;5.860;2022-08-01T04:04:48;22.38;75.01
65058;HTU21D;51644;51.068;5.860;2022-08-01T04:05:47;22.38;74.95
65058;HTU21D;51644;51.068;5.860;2022-08-01T04:06:45;22.35;75.05
65058;HTU21D;51644;51.068;5.860;2022-08-01T04:07:49;22.32;75.13
65058;HTU21D;51644;51.068;5.860;2022-08-01T04:08:56;22.31;75.22
65058;HTU21D;51644;51.068;5.860;2022-08-01T04:09:58;22.28;75.38
65058;HTU21D;51644;51.068;5.860;2022-08-01T04:10:57;22.26;75.42
65058;HTU21D;51644;51.068;5.860;2022-08-01T04:11:58;22.24;75.50
65058;HTU21D;51644;51.068;5.860;2022-08-01T04:12:57;22.25;75.49
65058;HTU21D;51644;51.068;5.860;2022-08-01T04:13:56;22.22;75.53
65058;HTU21D;51644;51.068;5.860;2022-08-01T04:14:55;22.23;75.53
65058;HTU21D;51644;51.068;5.860;2022-08-01T04:15:54;22.23;75.63
65058;HTU21D;51644;51.068;5.860;2022-08-01T04:16:53;22.25;75.69
65058;HTU21D;51644;51.068;5.860;2022-08-01T04:17:51;22.25;75.66
65058;HTU21D;51644;51.068;5.860;2022-08-01T04:18:52;22.26;75.58
65058;HTU21D;51644;51.068;5.860;2022-08-01T04:19:51;22.27;75.65
65058;HTU21D;51644;51.068;5.860;2022-08-01T04:20:50;22.28;75.69
65058;HTU21D;51644;51.068;5.860;2022-08-01T04:21:49;22.28;75.65
65058;HTU21D;51644;51.068;5.860;2022-08-01T04:22:48;22.29;75.72
65058;HTU21D;51644;51.068;5.860;2022-08-01T04:23:49;22.29;75.85
65058;HTU21D;51644;51.068;5.860;2022-08-01T04:24:54;22.25;76.15
65058;HTU21D;51644;51.068;5.860;2022-08-01T04:25:55;22.19;76.46
65058;HTU21D;51644;51.068;5.860;2022-08-01T04:26:58;22.09;76.89
65058;HTU21D;51644;51.068;5.860;2022-08-01T04:28:00;21.97;77.60
65058;HTU21D;51644;51.068;5.860;2022-08-01T04:29:04;21.88;78.41
65058;HTU21D;51644;51.068;5.860;2022-08-01T04:30:05;21.77;79.10
65058;HTU21D;51644;51.068;5.860;2022-08-01T04:31:08;21.70;79.59
65058;HTU21D;51644;51.068;5.860;2022-08-01T04:32:11;21.62;79.85
65058;HTU21D;51644;51.068;5.860;2022-08-01T04:33:13;21.52;80.40
65058;HTU21D;51644;51.068;5.860;2022-08-01T04:34:17;21.47;80.85
65058;HTU21D;51644;51.068;5.860;2022-08-01T04:35:20;21.45;81.22
65058;HTU21D;51644;51.068;5.860;2022-08-01T04:36:23;21.44;81.49
65058;HTU21D;51644;51.068;5.860;2022-08-01T04:37:23;21.45;81.65
65058;HTU21D;51644;51.068;5.860;2022-08-01T04:38:26;21.45;81.85
65058;HTU21D;51644;51.068;5.860;2022-08-01T04:39:30;21.45;81.82
65058;HTU21D;51644;51.068;5.860;2022-08-01T04:40:29;21.45;81.96
65058;HTU21D;51644;51.068;5.860;2022-08-01T04:41:31;21.40;82.04
65058;HTU21D;51644;51.068;5.860;2022-08-01T04:42:32;21.36;81.96
65058;HTU21D;51644;51.068;5.860;2022-08-01T04:43:30;21.32;82.06
65058;HTU21D;51644;51.068;5.860;2022-08-01T04:44:30;21.27;82.20
65058;HTU21D;51644;51.068;5.860;2022-08-01T04:45:31;21.24;82.32
65058;HTU21D;51644;51.068;5.860;2022-08-01T04:46:33;21.21;82.45
65058;HTU21D;51644;51.068;5.860;2022-08-01T04:47:35;21.21;82.61
65058;HTU21D;51644;51.068;5.860;2022-08-01T04:48:38;21.18;82.72
65058;HTU21D;51644;51.068;5.860;2022-08-01T04:49:37;21.17;82.82
65058;HTU21D;51644;51.068;5.860;2022-08-01T04:50:36;21.15;82.88
65058;HTU21D;51644;51.068;5.860;2022-08-01T04:51:35;21.14;82.93
65058;HTU21D;51644;51.068;5.860;2022-08-01T04:52:35;21.13;83.10
65058;HTU21D;51644;51.068;5.860;2022-08-01T04:53:34;21.15;83.13
65058;HTU21D;51644;51.068;5.860;2022-08-01T04:54:35;21.15;83.15
65058;HTU21D;51644;51.068;5.860;2022-08-01T04:55:36;21.16;83.06
65058;HTU21D;51644;51.068;5.860;2022-08-01T04:56:35;21.18;83.05
65058;HTU21D;51644;51.068;5.860;2022-08-01T04:57:37;21.19;83.07
65058;HTU21D;51644;51.068;5.860;2022-08-01T04:58:38;21.20;82.94
65058;HTU21D;51644;51.068;5.860;2022-08-01T04:59:43;21.21;82.87
65058;HTU21D;51644;51.068;5.860;2022-08-01T05:00:41;21.22;82.82
65058;HTU21D;51644;51.068;5.860;2022-08-01T05:01:40;21.21;82.84
65058;HTU21D;51644;51.068;5.860;2022-08-01T05:02:39;21.20;82.90
65058;HTU21D;51644;51.068;5.860;2022-08-01T05:03:37;21.22;82.94
65058;HTU21D;51644;51.068;5.860;2022-08-01T05:04:37;21.24;83.10
65058;HTU21D;51644;51.068;5.860;2022-08-01T05:05:35;21.27;83.20
65058;HTU21D;51644;51.068;5.860;2022-08-01T05:06:34;21.27;83.09
65058;HTU21D;51644;51.068;5.860;2022-08-01T05:07:33;21.29;82.97
65058;HTU21D;51644;51.068;5.860;2022-08-01T05:08:34;21.28;83.02
65058;HTU21D;51644;51.068;5.860;2022-08-01T05:09:35;21.30;83.10
65058;HTU21D;51644;51.068;5.860;2022-08-01T05:10:36;21.32;83.07
65058;HTU21D;51644;51.068;5.860;2022-08-01T05:11:35;21.35;83.05
65058;HTU21D;51644;51.068;5.860;2022-08-01T05:12:33;21.37;83.04
65058;HTU21D;51644;51.068;5.860;2022-08-01T05:13:32;21.36;83.06
65058;HTU21D;51644;51.068;5.860;2022-08-01T05:14:32;21.39;82.82
65058;HTU21D;51644;51.068;5.860;2022-08-01T05:15:31;21.44;82.76
65058;HTU21D;51644;51.068;5.860;2022-08-01T05:16:29;21.47;82.71
65058;HTU21D;51644;51.068;5.860;2022-08-01T05:17:28;21.51;82.55
65058;HTU21D;51644;51.068;5.860;2022-08-01T05:18:26;21.55;82.46
65058;HTU21D;51644;51.068;5.860;2022-08-01T05:19:25;21.57;82.36
65058;HTU21D;51644;51.068;5.860;2022-08-01T05:20:24;21.59;82.23
65058;HTU21D;51644;51.068;5.860;2022-08-01T05:21:23;21.61;82.11
65058;HTU21D;51644;51.068;5.860;2022-08-01T05:22:21;21.65;81.98
65058;HTU21D;51644;51.068;5.860;2022-08-01T05:23:20;21.67;81.94
65058;HTU21D;51644;51.068;5.860;2022-08-01T05:24:19;21.69;81.83
65058;HTU21D;51644;51.068;5.860;2022-08-01T05:25:18;21.68;81.73
65058;HTU21D;51644;51.068;5.860;2022-08-01T05:26:16;21.72;81.60
65058;HTU21D;51644;51.068;5.860;2022-08-01T05:27:15;21.74;81.52
65058;HTU21D;51644;51.068;5.860;2022-08-01T05:28:14;21.76;81.51
65058;HTU21D;51644;51.068;5.860;2022-08-01T05:29:12;21.78;81.45
65058;HTU21D;51644;51.068;5.860;2022-08-01T05:30:11;21.83;81.30
65058;HTU21D;51644;51.068;5.860;2022-08-01T05:31:10;21.82;81.28
65058;HTU21D;51644;51.068;5.860;2022-08-01T05:32:09;21.83;81.19
65058;HTU21D;51644;51.068;5.860;2022-08-01T05:33:07;21.85;81.20
65058;HTU21D;51644;51.068;5.860;2022-08-01T05:34:12;21.88;81.24
65058;HTU21D;51644;51.068;5.860;2022-08-01T05:35:10;21.91;81.10
65058;HTU21D;51644;51.068;5.860;2022-08-01T05:36:09;21.97;81.01
65058;HTU21D;51644;51.068;5.860;2022-08-01T05:37:08;22.02;80.91
65058;HTU21D;51644;51.068;5.860;2022-08-01T05:38:09;22.07;80.77
65058;HTU21D;51644;51.068;5.860;2022-08-01T05:39:08;22.11;80.52
65058;HTU21D;51644;51.068;5.860;2022-08-01T05:40:08;22.14;80.36
65058;HTU21D;51644;51.068;5.860;2022-08-01T05:41:06;22.19;80.32
65058;HTU21D;51644;51.068;5.860;2022-08-01T05:42:05;22.20;80.19
65058;HTU21D;51644;51.068;5.860;2022-08-01T05:43:03;22.22;80.04
65058;HTU21D;51644;51.068;5.860;2022-08-01T05:44:03;22.23;79.96
65058;HTU21D;51644;51.068;5.860;2022-08-01T05:45:02;22.23;80.00
65058;HTU21D;51644;51.068;5.860;2022-08-01T05:46:01;22.22;79.95
65058;HTU21D;51644;51.068;5.860;2022-08-01T05:47:00;22.21;79.95
65058;HTU21D;51644;51.068;5.860;2022-08-01T05:47:58;22.20;79.92
65058;HTU21D;51644;51.068;5.860;2022-08-01T05:48:58;22.21;79.97
65058;HTU21D;51644;51.068;5.860;2022-08-01T05:49:56;22.21;79.99
65058;HTU21D;51644;51.068;5.860;2022-08-01T05:50:58;22.23;79.90
65058;HTU21D;51644;51.068;5.860;2022-08-01T05:52:21;22.22;79.83
65058;HTU21D;51644;51.068;5.860;2022-08-01T05:53:33;22.22;79.80
65058;HTU21D;51644;51.068;5.860;2022-08-01T05:54:32;22.20;79.80
65058;HTU21D;51644;51.068;5.860;2022-08-01T05:55:31;22.17;79.70
65058;HTU21D;51644;51.068;5.860;2022-08-01T05:56:30;22.16;79.75
65058;HTU21D;51644;51.068;5.860;2022-08-01T05:57:28;22.14;79.88
65058;HTU21D;51644;51.068;5.860;2022-08-01T05:58:27;22.14;79.88
65058;HTU21D;51644;51.068;5.860;2022-08-01T05:59:25;22.13;79.96
65058;HTU21D;51644;51.068;5.860;2022-08-01T06:00:24;22.16;79.90
65058;HTU21D;51644;51.068;5.860;2022-08-01T06:01:22;22.16;79.88
65058;HTU21D;51644;51.068;5.860;2022-08-01T06:02:21;22.18;79.78
65058;HTU21D;51644;51.068;5.860;2022-08-01T06:03:20;22.20;79.75
65058;HTU21D;51644;51.068;5.860;2022-08-01T06:04:18;22.23;79.73
65058;HTU21D;51644;51.068;5.860;2022-08-01T06:05:17;22.23;79.66
65058;HTU21D;51644;51.068;5.860;2022-08-01T06:06:15;22.25;79.59
65058;HTU21D;51644;51.068;5.860;2022-08-01T06:07:14;22.26;79.59
65058;HTU21D;51644;51.068;5.860;2022-08-01T06:08:13;22.28;79.50
65058;HTU21D;51644;51.068;5.860;2022-08-01T06:09:12;22.28;79.34
65058;HTU21D;51644;51.068;5.860;2022-08-01T06:10:10;22.25;79.43
65058;HTU21D;51644;51.068;5.860;2022-08-01T06:11:09;22.24;79.30
65058;HTU21D;51644;51.068;5.860;2022-08-01T06:12:07;22.26;79.37
65058;HTU21D;51644;51.068;5.860;2022-08-01T06:13:06;22.20;79.43
65058;HTU21D;51644;51.068;5.860;2022-08-01T06:14:05;22.21;79.30
65058;HTU21D;51644;51.068;5.860;2022-08-01T06:15:05;22.20;79.37
65058;HTU21D;51644;51.068;5.860;2022-08-01T06:16:04;22.19;79.42
65058;HTU21D;51644;51.068;5.860;2022-08-01T06:17:03;22.20;79.43
65058;HTU21D;51644;51.068;5.860;2022-08-01T06:18:01;22.19;79.44
65058;HTU21D;51644;51.068;5.860;2022-08-01T06:19:00;22.17;79.41
65058;HTU21D;51644;51.068;5.860;2022-08-01T06:19:58;22.18;79.39
65058;HTU21D;51644;51.068;5.860;2022-08-01T06:20:58;22.18;79.46
65058;HTU21D;51644;51.068;5.860;2022-08-01T06:21:56;22.18;79.42
65058;HTU21D;51644;51.068;5.860;2022-08-01T06:22:55;22.18;79.33
65058;HTU21D;51644;51.068;5.860;2022-08-01T06:23:53;22.17;79.27
65058;HTU21D;51644;51.068;5.860;2022-08-01T06:24:52;22.18;79.23
65058;HTU21D;51644;51.068;5.860;2022-08-01T06:25:54;22.23;79.25
65058;HTU21D;51644;51.068;5.860;2022-08-01T06:26:53;22.28;79.19
65058;HTU21D;51644;51.068;5.860;2022-08-01T06:27:51;22.35;79.01
65058;HTU21D;51644;51.068;5.860;2022-08-01T06:28:50;22.42;78.78
65058;HTU21D;51644;51.068;5.860;2022-08-01T06:29:48;22.49;78.59
65058;HTU21D;51644;51.068;5.860;2022-08-01T06:30:47;22.55;78.40
65058;HTU21D;51644;51.068;5.860;2022-08-01T06:31:46;22.65;78.11
65058;HTU21D;51644;51.068;5.860;2022-08-01T06:32:47;22.73;77.93
65058;HTU21D;51644;51.068;5.860;2022-08-01T06:33:46;22.87;77.87
65058;HTU21D;51644;51.068;5.860;2022-08-01T06:34:44;23.01;77.32
65058;HTU21D;51644;51.068;5.860;2022-08-01T06:35:43;23.15;76.67